Flight Track Log - Related Links

Times and Time Zones

All times are in EST time to prevent confusion due to time zone crossing. See the TRS221 flight status page for this flight to view local times or setup timezone preferences in your user account.

Time Position Orientation Groundspeed Altitude Reporting Facility
EST Latitude Longitude Course Direction KTS MPH feet Rate Location/Type
Thu 11:31:56 PM 39.1667 -76.6500 49° Northeast 160 184 1,300  Level Potomac TRACON
Thu 11:32:56 PM 39.2000 -76.6000 49° Northeast 228 262 3,100 1,850 Climbing Potomac TRACON
Thu 11:33:56 PM 39.2167 -76.6667 288° West 226 260 5,000 2,281 Climbing Potomac TRACON
Thu 11:34:57 PM 39.2167 -76.7500 270° West 243 280 7,700 2,616 Climbing Potomac TRACON
Thu 11:36:48 PM 39.1731 -76.9008 250° West 261 300 12,500 2,188 Climbing Washington Center
Thu 11:37:47 PM 39.1906 -77.0056 282° West 269 310 13,900 1,714 Climbing Washington Center
Thu 11:38:47 PM 39.2142 -77.1186 285° West 314 361 15,900 1,934 Climbing Washington Center
Thu 11:39:48 PM 39.2378 -77.2342 285° West 331 381 17,800 1,800 Climbing Washington Center
Thu 11:40:47 PM 39.2611 -77.3581 284° West 344 396 19,500 1,576 Climbing Washington Center
Thu 11:41:46 PM 39.2883 -77.4822 286° West 349 402 20,900 1,462 Climbing Washington Center
Thu 11:42:46 PM 39.3111 -77.6114 283° West 360 414 22,400 1,339 Climbing Washington Center
Thu 11:43:47 PM 39.3361 -77.7383 284° West 360 414 23,600 1,073 Climbing Washington Center
Thu 11:44:49 PM 39.3608 -77.8706 284° West 365 420 24,600 958 Climbing Washington Center
Thu 11:45:46 PM 39.3853 -78.0028 283° West 377 434 25,500 966 Climbing Washington Center
Thu 11:46:47 PM 39.4097 -78.1353 283° West 377 434 26,500 1,000 Climbing Washington Center
Thu 11:47:46 PM 39.4358 -78.2706 284° West 377 434 27,500 1,008 Climbing Washington Center
Thu 11:48:46 PM 39.4619 -78.4061 284° West 377 434 28,500 1,118 Climbing Washington Center
Thu 11:50:27 PM 39.5058 -78.6400 284° West 380 437 30,500 1,148 Climbing Cleveland Center
Thu 11:51:28 PM 39.5292 -78.7689 283° West 375 432 31,600 1,041 Climbing Cleveland Center
Thu 11:52:28 PM 39.5525 -78.8981 283° West 370 426 32,600 992 Climbing Cleveland Center
Thu 11:53:29 PM 39.5708 -79.0047 283° West 366 421 33,600 689 Climbing Cleveland Center
Thu 11:54:30 PM 39.6003 -79.1553 284° West 362 417 34,000 198 Climbing Cleveland Center
Thu 11:55:30 PM 39.6217 -79.2778 283° West 352 405 34,000  Level Cleveland Center
Thu 11:56:31 PM 39.6431 -79.4022 283° West 352 405 34,000  Level Cleveland Center
Thu 11:57:32 PM 39.6661 -79.5286 283° West 355 409 34,000  Level Cleveland Center
Thu 11:58:32 PM 39.6864 -79.6550 282° West 356 410 34,000  Level Cleveland Center
Thu 11:59:33 PM 39.7081 -79.7792 283° West 355 409 34,000  Level Cleveland Center
Fri 12:00:33 AM 39.7283 -79.9025 282° West 353 406 34,000  Level Cleveland Center
Fri 12:01:34 AM 39.7494 -80.0256 283° West 350 403 34,000  Level Cleveland Center
Fri 12:02:35 AM 39.7706 -80.1511 282° West 353 406 34,000  Level Cleveland Center
Fri 12:03:35 AM 39.7919 -80.2742 283° West 351 404 34,000  Level Cleveland Center
Fri 12:04:36 AM 39.8136 -80.4050 282° West 352 405 34,000  Level Cleveland Center
Fri 12:05:37 AM 39.8331 -80.5278 282° West 354 407 34,000  Level Cleveland Center
Fri 12:06:37 AM 39.8533 -80.6519 282° West 354 407 34,000 -298 Level Cleveland Center
Fri 12:07:38 AM 39.8733 -80.7711 282° West 339 390 33,400 -942 Descending Cleveland Center
Fri 12:08:38 AM 39.8928 -80.8975 281° West 349 402 32,100 -1,041 Descending Cleveland Center
Fri 12:09:39 AM 39.9136 -81.0261 282° West 358 412 31,300 -893 Descending Cleveland Center
Fri 12:10:39 AM 39.9344 -81.1600 282° West 364 419 30,300 -645 Descending Indianapolis Center
Fri 12:11:40 AM 39.9550 -81.2883 282° West 365 420 30,000 -149 Descending Indianapolis Center
Fri 12:12:40 AM 39.9758 -81.4294 281° West 368 423 30,000  Level Indianapolis Center
Fri 12:13:41 AM 39.9972 -81.5611 282° West 368 423 30,000  Level Indianapolis Center
Fri 12:14:42 AM 40.0172 -81.6925 281° West 366 421 30,000  Level Indianapolis Center
Fri 12:15:43 AM 40.0369 -81.8197 281° West 367 422 30,000  Level Indianapolis Center
Fri 12:16:44 AM 40.0572 -81.9481 282° West 364 419 30,000  Level Indianapolis Center
Fri 12:17:45 AM 40.0756 -82.0794 280° West 368 423 30,000  Level Indianapolis Center
Fri 12:18:46 AM 40.0953 -82.2072 281° West 362 417 30,000  Level Indianapolis Center
Fri 12:19:47 AM 40.1147 -82.3369 281° West 365 420 30,000  Level Indianapolis Center
Fri 12:20:47 AM 40.1331 -82.4650 281° West 362 417 30,000  Level Indianapolis Center
Fri 12:21:48 AM 40.1519 -82.5950 281° West 365 420 30,000 -98 Level Indianapolis Center
Fri 12:22:49 AM 40.1583 -82.7261 274° West 362 417 29,800 -1,230 Descending Indianapolis Center
Fri 12:23:50 AM 40.1650 -82.8569 274° West 363 418 27,500 -2,656 Descending Indianapolis Center
Fri 12:24:51 AM 40.1656 -83.0142 270° West 362 417 24,400 -3,025 Descending Indianapolis Center
Fri 12:25:51 AM 40.1433 -83.1336 256° West 342 394 21,400 -2,929 Descending Indianapolis Center
Fri 12:26:15 AM 40.1342 -83.1775 255° West 330 380 20,300 -2,951 Descending Indianapolis Center
Fri 12:26:52 AM 40.1222 -83.2478 257° West 329 379 18,400 -3,000 Descending Indianapolis Center
Fri 12:26:57 AM 40.1200 -83.2572 253° West 324 373 18,200 -2,852 Descending Indianapolis Center
Fri 12:27:53 AM 40.1019 -83.3625 257° West 328 377 15,500 -2,852 Descending Indianapolis Center
Fri 12:27:58 AM 40.1003 -83.3744 260° West 324 373 15,300 -2,754 Descending Indianapolis Center
Fri 12:28:54 AM 40.0814 -83.4708 256° West 316 364 12,700 -3,100 Descending Indianapolis Center
Fri 12:28:58 AM 40.0781 -83.4911 258° West 309 356 12,200 -1,500 Descending Indianapolis Center
Fri 12:29:54 AM 40.0619 -83.5747 256° West 303 349 11,200 -1,082 Descending Indianapolis Center
Fri 12:29:59 AM 40.0597 -83.5919 260° West 258 297 11,100 -787 Descending Indianapolis Center
Fri 12:30:55 AM 40.0472 -83.6617 257° West 257 296 10,400 -900 Descending Indianapolis Center
Fri 12:30:59 AM 40.0425 -83.6794 251° West 245 282 10,200 -1,574 Descending Indianapolis Center
Fri 12:31:56 AM 40.0308 -83.7447 257° West 245 282 8,800 -1,770 Descending Indianapolis Center
Fri 12:32:00 AM 40.0275 -83.7642 257° West 240 276 8,400 -1,800 Descending Indianapolis Center
Fri 12:32:56 AM 40.0150 -83.8272 256° West 240 276 7,000 -1,672 Descending Indianapolis Center
Fri 12:33:01 AM 40.0128 -83.8467 262° West 237 273 6,700 -1,467 Descending Indianapolis Center
Fri 12:35:56 AM 39.9678 -84.0767 263° West 205 236 2,600 -1,382 Descending Indianapolis Center
Fri 12:35:59 AM 39.9669 -84.0797 250° West 221 254 2,600  Level Indianapolis Center
Fri 12:36:57 AM 39.9583 -84.1269 257° West 112 129 2,600  Level Indianapolis Center
Fri 12:36:59 AM 39.9572 -84.1261 150° Southeast 164 189 2,600 -492 Level Indianapolis Center
Fri 12:37:58 AM 39.9425 -84.1569 238° Southwest 86 99 2,100 -492 Descending Indianapolis Center
Fri 12:38:00 AM 39.9433 -84.1569 360° North 120 138 2,100 -600 Level Indianapolis Center
Fri 12:38:58 AM 39.9264 -84.1894 236° Southwest 107 123 1,500 -492 Descending Indianapolis Center
Fri 12:39:01 AM 39.9300 -84.1819 58° Northeast 110 127 1,600 2,000 Climbing Indianapolis Center
Fri 12:41:00 AM 39.9000 -84.2167 247° West  Level FlightAware Approximate
Fri 12:48:00 AM 39.9022 -84.2194 247° West  Level Estimated
Fri 12:49:00 AM 39.9000 -84.2167 247° West  Level FlightAware Approximate
Fri 12:50:00 AM 39.9022 -84.2194 247° West  Level Estimated
Fri 12:51:00 AM 39.9000 -84.2167 247° West  Level FlightAware Approximate
Fri 12:52:00 AM 39.9022 -84.2194 247° West  Level Estimated
Fri 12:53:00 AM 39.9000 -84.2167 247° West  Level FlightAware Approximate
Fri 12:54:00 AM 39.9022 -84.2194 247° West  Level Estimated

Login

Don't have an account? Register now (free) for customized features, flight alerts, and more!